sensor_id;sensor_type;location;lat;lon;timestamp;temperature;humidity
51884;DHT22;37915;53.254;6.598;2022-12-18T00:00:45;-3.50;99.90
51884;DHT22;37915;53.254;6.598;2022-12-18T00:03:13;-3.40;99.90
51884;DHT22;37915;53.254;6.598;2022-12-18T00:05:50;-3.50;99.90
51884;DHT22;37915;53.254;6.598;2022-12-18T00:08:16;-3.50;99.90
51884;DHT22;37915;53.254;6.598;2022-12-18T00:10:43;-3.40;99.90
51884;DHT22;37915;53.254;6.598;2022-12-18T00:13:09;-3.50;99.90
51884;DHT22;37915;53.254;6.598;2022-12-18T00:15:36;-3.50;99.90
51884;DHT22;37915;53.254;6.598;2022-12-18T00:18:05;-3.50;99.90
51884;DHT22;37915;53.254;6.598;2022-12-18T00:20:31;-3.50;99.90
51884;DHT22;37915;53.254;6.598;2022-12-18T00:22:57;-2.60;99.90
51884;DHT22;37915;53.254;6.598;2022-12-18T00:25:23;-3.50;99.90
51884;DHT22;37915;53.254;6.598;2022-12-18T00:27:48;-3.50;99.90
51884;DHT22;37915;53.254;6.598;2022-12-18T00:30:14;-3.10;99.90
51884;DHT22;37915;53.254;6.598;2022-12-18T00:32:40;-3.50;99.90
51884;DHT22;37915;53.254;6.598;2022-12-18T00:35:06;-3.60;99.90
51884;DHT22;37915;53.254;6.598;2022-12-18T00:37:35;-3.60;99.90
51884;DHT22;37915;53.254;6.598;2022-12-18T00:40:02;-3.60;99.90
51884;DHT22;37915;53.254;6.598;2022-12-18T00:42:28;-3.20;99.90
51884;DHT22;37915;53.254;6.598;2022-12-18T00:45:12;-3.60;99.90
51884;DHT22;37915;53.254;6.598;2022-12-18T00:47:38;-3.60;99.90
51884;DHT22;37915;53.254;6.598;2022-12-18T00:50:04;-3.60;99.90
51884;DHT22;37915;53.254;6.598;2022-12-18T00:52:30;-3.60;99.90
51884;DHT22;37915;53.254;6.598;2022-12-18T00:54:55;-3.60;99.90
51884;DHT22;37915;53.254;6.598;2022-12-18T00:57:21;-3.70;99.90
51884;DHT22;37915;53.254;6.598;2022-12-18T00:59:46;-3.70;99.90
51884;DHT22;37915;53.254;6.598;2022-12-18T01:02:12;-2.70;99.90
51884;DHT22;37915;53.254;6.598;2022-12-18T01:04:38;-3.70;99.90
51884;DHT22;37915;53.254;6.598;2022-12-18T01:07:03;-2.00;99.90
51884;DHT22;37915;53.254;6.598;2022-12-18T01:09:29;-2.70;99.90
51884;DHT22;37915;53.254;6.598;2022-12-18T01:11:55;-3.80;99.90
51884;DHT22;37915;53.254;6.598;2022-12-18T01:14:20;-3.80;99.90
51884;DHT22;37915;53.254;6.598;2022-12-18T01:16:46;-3.80;99.90
51884;DHT22;37915;53.254;6.598;2022-12-18T01:19:12;-3.80;99.90
51884;DHT22;37915;53.254;6.598;2022-12-18T01:21:37;-3.80;99.90
51884;DHT22;37915;53.254;6.598;2022-12-18T01:24:04;-3.80;99.90
51884;DHT22;37915;53.254;6.598;2022-12-18T01:26:29;-3.80;99.90
51884;DHT22;37915;53.254;6.598;2022-12-18T01:28:56;-3.90;99.90
51884;DHT22;37915;53.254;6.598;2022-12-18T01:31:25;-2.30;99.90
51884;DHT22;37915;53.254;6.598;2022-12-18T01:33:52;-3.90;99.90
51884;DHT22;37915;53.254;6.598;2022-12-18T01:36:23;-2.50;99.90
51884;DHT22;37915;53.254;6.598;2022-12-18T01:38:50;-3.90;99.90
51884;DHT22;37915;53.254;6.598;2022-12-18T01:41:19;-3.90;99.90
51884;DHT22;37915;53.254;6.598;2022-12-18T01:46:11;-3.90;99.90
51884;DHT22;37915;53.254;6.598;2022-12-18T01:48:38;-4.00;99.90
51884;DHT22;37915;53.254;6.598;2022-12-18T01:51:06;-4.00;99.90
51884;DHT22;37915;53.254;6.598;2022-12-18T01:53:32;-4.00;99.90
51884;DHT22;37915;53.254;6.598;2022-12-18T01:55:58;-4.00;99.90
51884;DHT22;37915;53.254;6.598;2022-12-18T01:58:34;-2.70;99.90
51884;DHT22;37915;53.254;6.598;2022-12-18T02:01:01;-4.00;99.90
51884;DHT22;37915;53.254;6.598;2022-12-18T02:03:27;-4.10;99.90
51884;DHT22;37915;53.254;6.598;2022-12-18T02:08:58;-4.00;99.90
51884;DHT22;37915;53.254;6.598;2022-12-18T02:11:33;-4.00;99.90
51884;DHT22;37915;53.254;6.598;2022-12-18T02:14:29;-3.60;99.90
51884;DHT22;37915;53.254;6.598;2022-12-18T02:17:06;-4.10;99.90
51884;DHT22;37915;53.254;6.598;2022-12-18T02:23:06;-4.20;99.90
51884;DHT22;37915;53.254;6.598;2022-12-18T02:28:31;-4.20;99.90
51884;DHT22;37915;53.254;6.598;2022-12-18T02:31:00;-4.30;99.90
51884;DHT22;37915;53.254;6.598;2022-12-18T02:33:27;-4.30;99.90
51884;DHT22;37915;53.254;6.598;2022-12-18T02:35:56;-4.30;99.90
51884;DHT22;37915;53.254;6.598;2022-12-18T02:38:23;-4.40;99.90
51884;DHT22;37915;53.254;6.598;2022-12-18T02:40:51;-4.40;99.90
51884;DHT22;37915;53.254;6.598;2022-12-18T02:43:18;-4.40;99.90
51884;DHT22;37915;53.254;6.598;2022-12-18T02:45:58;-4.30;99.90
51884;DHT22;37915;53.254;6.598;2022-12-18T02:48:32;-4.50;99.90
51884;DHT22;37915;53.254;6.598;2022-12-18T02:51:00;-4.40;99.90
51884;DHT22;37915;53.254;6.598;2022-12-18T02:53:36;-4.50;99.90
51884;DHT22;37915;53.254;6.598;2022-12-18T02:56:11;-4.60;99.90
51884;DHT22;37915;53.254;6.598;2022-12-18T02:58:47;-4.50;99.90
51884;DHT22;37915;53.254;6.598;2022-12-18T03:01:24;-4.60;99.90
51884;DHT22;37915;53.254;6.598;2022-12-18T03:03:55;-4.60;99.90
51884;DHT22;37915;53.254;6.598;2022-12-18T03:06:35;-3.40;99.90
51884;DHT22;37915;53.254;6.598;2022-12-18T03:09:14;-4.70;99.90
51884;DHT22;37915;53.254;6.598;2022-12-18T03:11:46;-4.70;99.90
51884;DHT22;37915;53.254;6.598;2022-12-18T03:14:34;-4.70;99.90
51884;DHT22;37915;53.254;6.598;2022-12-18T03:17:03;-4.70;99.90
51884;DHT22;37915;53.254;6.598;2022-12-18T03:19:32;-2.90;99.90
51884;DHT22;37915;53.254;6.598;2022-12-18T03:22:02;-4.80;99.90
51884;DHT22;37915;53.254;6.598;2022-12-18T03:24:29;-4.80;99.90
51884;DHT22;37915;53.254;6.598;2022-12-18T03:27:02;-3.40;99.90
51884;DHT22;37915;53.254;6.598;2022-12-18T03:29:36;-4.80;99.90
51884;DHT22;37915;53.254;6.598;2022-12-18T03:32:12;-4.80;99.90
51884;DHT22;37915;53.254;6.598;2022-12-18T03:34:42;-4.80;99.90
51884;DHT22;37915;53.254;6.598;2022-12-18T03:37:10;-4.70;99.90
51884;DHT22;37915;53.254;6.598;2022-12-18T03:39:36;-4.80;99.90
51884;DHT22;37915;53.254;6.598;2022-12-18T03:45:28;-4.90;99.90
51884;DHT22;37915;53.254;6.598;2022-12-18T03:48:06;-4.80;99.90
51884;DHT22;37915;53.254;6.598;2022-12-18T03:55:52;-4.90;99.90
51884;DHT22;37915;53.254;6.598;2022-12-18T03:58:22;-4.90;99.90
51884;DHT22;37915;53.254;6.598;2022-12-18T04:00:51;-4.90;99.90
51884;DHT22;37915;53.254;6.598;2022-12-18T04:03:18;-4.90;99.90
51884;DHT22;37915;53.254;6.598;2022-12-18T04:05:48;-4.70;99.90
51884;DHT22;37915;53.254;6.598;2022-12-18T04:08:14;-4.90;99.90
51884;DHT22;37915;53.254;6.598;2022-12-18T04:10:40;-4.90;99.90
51884;DHT22;37915;53.254;6.598;2022-12-18T04:13:06;-4.90;99.90
51884;DHT22;37915;53.254;6.598;2022-12-18T04:15:34;-5.00;99.90
51884;DHT22;37915;53.254;6.598;2022-12-18T04:18:01;-4.70;99.90
51884;DHT22;37915;53.254;6.598;2022-12-18T04:20:27;-5.00;99.90
51884;DHT22;37915;53.254;6.598;2022-12-18T04:22:53;-5.00;99.90
51884;DHT22;37915;53.254;6.598;2022-12-18T04:25:18;-5.00;99.90
51884;DHT22;37915;53.254;6.598;2022-12-18T04:27:44;-5.00;99.90
51884;DHT22;37915;53.254;6.598;2022-12-18T04:30:10;-5.00;99.90
51884;DHT22;37915;53.254;6.598;2022-12-18T04:32:36;-5.00;99.90
51884;DHT22;37915;53.254;6.598;2022-12-18T04:35:02;-3.60;99.90
51884;DHT22;37915;53.254;6.598;2022-12-18T04:37:30;-5.10;99.90
51884;DHT22;37915;53.254;6.598;2022-12-18T04:39:55;-4.30;99.90
51884;DHT22;37915;53.254;6.598;2022-12-18T04:42:21;-5.10;99.90
51884;DHT22;37915;53.254;6.598;2022-12-18T04:44:47;-5.10;99.90
51884;DHT22;37915;53.254;6.598;2022-12-18T04:47:12;-5.10;99.90
51884;DHT22;37915;53.254;6.598;2022-12-18T04:49:38;-5.10;99.90
51884;DHT22;37915;53.254;6.598;2022-12-18T04:52:04;-5.10;99.90
51884;DHT22;37915;53.254;6.598;2022-12-18T04:54:29;-5.10;99.90
51884;DHT22;37915;53.254;6.598;2022-12-18T04:56:55;-5.10;99.90
51884;DHT22;37915;53.254;6.598;2022-12-18T04:59:21;-5.10;99.90
51884;DHT22;37915;53.254;6.598;2022-12-18T05:01:46;-5.10;99.90
51884;DHT22;37915;53.254;6.598;2022-12-18T05:04:12;-5.10;99.90
51884;DHT22;37915;53.254;6.598;2022-12-18T05:06:38;-4.00;99.90
51884;DHT22;37915;53.254;6.598;2022-12-18T05:09:03;-3.90;99.90
51884;DHT22;37915;53.254;6.598;2022-12-18T05:11:29;-4.60;99.90
51884;DHT22;37915;53.254;6.598;2022-12-18T05:13:56;-5.10;99.90
51884;DHT22;37915;53.254;6.598;2022-12-18T05:16:21;-5.20;99.90
51884;DHT22;37915;53.254;6.598;2022-12-18T05:18:47;-5.10;99.90
51884;DHT22;37915;53.254;6.598;2022-12-18T05:21:13;-5.10;99.90
51884;DHT22;37915;53.254;6.598;2022-12-18T05:23:38;-4.20;99.90
51884;DHT22;37915;53.254;6.598;2022-12-18T05:26:05;-5.20;99.90
51884;DHT22;37915;53.254;6.598;2022-12-18T05:28:33;-5.10;99.90
51884;DHT22;37915;53.254;6.598;2022-12-18T05:31:00;-5.20;99.90
51884;DHT22;37915;53.254;6.598;2022-12-18T05:33:29;-5.20;99.90
51884;DHT22;37915;53.254;6.598;2022-12-18T05:35:58;-5.20;99.90
51884;DHT22;37915;53.254;6.598;2022-12-18T05:38:28;-4.80;99.90
51884;DHT22;37915;53.254;6.598;2022-12-18T05:40:54;-3.80;99.90
51884;DHT22;37915;53.254;6.598;2022-12-18T05:43:20;-5.20;99.90
51884;DHT22;37915;53.254;6.598;2022-12-18T05:45:50;-5.20;99.90
51884;DHT22;37915;53.254;6.598;2022-12-18T05:48:17;-5.30;99.90
51884;DHT22;37915;53.254;6.598;2022-12-18T05:50:47;-5.00;99.90
51884;DHT22;37915;53.254;6.598;2022-12-18T05:53:14;-5.10;99.90
51884;DHT22;37915;53.254;6.598;2022-12-18T05:55:41;-3.80;99.90
51884;DHT22;37915;53.254;6.598;2022-12-18T05:58:09;-4.40;99.90
51884;DHT22;37915;53.254;6.598;2022-12-18T06:00:40;-5.20;99.90
51884;DHT22;37915;53.254;6.598;2022-12-18T06:03:07;-5.30;99.90
51884;DHT22;37915;53.254;6.598;2022-12-18T06:05:41;-5.30;99.90
51884;DHT22;37915;53.254;6.598;2022-12-18T06:08:08;-5.30;99.90
51884;DHT22;37915;53.254;6.598;2022-12-18T06:10:34;-5.30;99.90
51884;DHT22;37915;53.254;6.598;2022-12-18T06:13:00;-5.30;99.90
51884;DHT22;37915;53.254;6.598;2022-12-18T06:15:26;-4.80;99.90
51884;DHT22;37915;53.254;6.598;2022-12-18T06:17:51;-5.30;99.90
51884;DHT22;37915;53.254;6.598;2022-12-18T06:20:17;-4.70;99.90
51884;DHT22;37915;53.254;6.598;2022-12-18T06:22:43;-5.30;99.90
51884;DHT22;37915;53.254;6.598;2022-12-18T06:25:09;-5.40;99.90
51884;DHT22;37915;53.254;6.598;2022-12-18T06:27:35;-4.80;99.90
51884;DHT22;37915;53.254;6.598;2022-12-18T06:30:00;-4.50;99.90
51884;DHT22;37915;53.254;6.598;2022-12-18T06:32:27;-5.40;99.90
51884;DHT22;37915;53.254;6.598;2022-12-18T06:34:52;-5.40;99.90
51884;DHT22;37915;53.254;6.598;2022-12-18T06:37:19;-5.40;99.90
51884;DHT22;37915;53.254;6.598;2022-12-18T06:39:45;-4.60;99.90
51884;DHT22;37915;53.254;6.598;2022-12-18T06:42:10;-5.50;99.90
51884;DHT22;37915;53.254;6.598;2022-12-18T06:44:36;-5.50;99.90
51884;DHT22;37915;53.254;6.598;2022-12-18T06:47:02;-5.60;99.90
51884;DHT22;37915;53.254;6.598;2022-12-18T06:49:28;-5.20;99.90
51884;DHT22;37915;53.254;6.598;2022-12-18T06:51:53;-4.60;99.90
51884;DHT22;37915;53.254;6.598;2022-12-18T06:54:19;-5.50;99.90
51884;DHT22;37915;53.254;6.598;2022-12-18T06:56:45;-5.60;99.90
51884;DHT22;37915;53.254;6.598;2022-12-18T06:59:12;-5.60;99.90
51884;DHT22;37915;53.254;6.598;2022-12-18T07:01:38;-5.60;99.90
51884;DHT22;37915;53.254;6.598;2022-12-18T07:04:04;-5.60;99.90
51884;DHT22;37915;53.254;6.598;2022-12-18T07:06:29;-5.60;99.90
51884;DHT22;37915;53.254;6.598;2022-12-18T07:08:55;-5.70;99.90
51884;DHT22;37915;53.254;6.598;2022-12-18T07:11:21;-5.70;99.90
51884;DHT22;37915;53.254;6.598;2022-12-18T07:13:47;-5.70;99.90
51884;DHT22;37915;53.254;6.598;2022-12-18T07:16:18;-4.50;99.90
51884;DHT22;37915;53.254;6.598;2022-12-18T07:18:45;-5.60;99.90
51884;DHT22;37915;53.254;6.598;2022-12-18T07:21:13;-5.70;99.90
51884;DHT22;37915;53.254;6.598;2022-12-18T07:23:39;-5.70;99.90
51884;DHT22;37915;53.254;6.598;2022-12-18T07:26:07;-5.70;99.90
51884;DHT22;37915;53.254;6.598;2022-12-18T07:28:35;-5.70;99.90
51884;DHT22;37915;53.254;6.598;2022-12-18T07:31:21;-5.70;99.90
51884;DHT22;37915;53.254;6.598;2022-12-18T07:33:47;-5.70;99.90
51884;DHT22;37915;53.254;6.598;2022-12-18T07:36:13;-4.20;99.90
51884;DHT22;37915;53.254;6.598;2022-12-18T07:38:39;-5.80;99.90
51884;DHT22;37915;53.254;6.598;2022-12-18T07:41:11;-5.80;99.90
51884;DHT22;37915;53.254;6.598;2022-12-18T07:43:37;-5.30;99.90
51884;DHT22;37915;53.254;6.598;2022-12-18T07:46:04;-5.70;99.90
51884;DHT22;37915;53.254;6.598;2022-12-18T07:48:30;-5.70;99.90
51884;DHT22;37915;53.254;6.598;2022-12-18T07:51:05;-5.60;99.90
51884;DHT22;37915;53.254;6.598;2022-12-18T07:53:33;-5.60;99.90
51884;DHT22;37915;53.254;6.598;2022-12-18T07:56:01;-5.60;99.90
51884;DHT22;37915;53.254;6.598;2022-12-18T07:58:28;-5.60;99.90
51884;DHT22;37915;53.254;6.598;2022-12-18T08:01:01;-5.60;99.90
51884;DHT22;37915;53.254;6.598;2022-12-18T08:03:27;-5.60;99.90
51884;DHT22;37915;53.254;6.598;2022-12-18T08:05:52;-5.20;99.90
51884;DHT22;37915;53.254;6.598;2022-12-18T08:08:23;-5.60;99.90
51884;DHT22;37915;53.254;6.598;2022-12-18T08:10:49;-5.60;99.90
51884;DHT22;37915;53.254;6.598;2022-12-18T08:13:14;-4.30;99.90
51884;DHT22;37915;53.254;6.598;2022-12-18T08:15:40;-5.60;99.90
51884;DHT22;37915;53.254;6.598;2022-12-18T08:18:06;-5.50;99.90
51884;DHT22;37915;53.254;6.598;2022-12-18T08:20:31;-5.60;99.90
51884;DHT22;37915;53.254;6.598;2022-12-18T08:22:57;-5.60;99.90
51884;DHT22;37915;53.254;6.598;2022-12-18T08:25:23;-5.50;99.90
51884;DHT22;37915;53.254;6.598;2022-12-18T08:27:50;-5.50;99.90
51884;DHT22;37915;53.254;6.598;2022-12-18T08:30:16;-5.40;99.90
51884;DHT22;37915;53.254;6.598;2022-12-18T08:32:42;-5.50;99.90
51884;DHT22;37915;53.254;6.598;2022-12-18T08:35:08;-5.40;99.90
51884;DHT22;37915;53.254;6.598;2022-12-18T08:37:34;-5.40;99.90
51884;DHT22;37915;53.254;6.598;2022-12-18T08:40:00;-5.40;99.90
51884;DHT22;37915;53.254;6.598;2022-12-18T08:42:25;-4.90;99.90
51884;DHT22;37915;53.254;6.598;2022-12-18T08:45:10;-5.30;99.90
51884;DHT22;37915;53.254;6.598;2022-12-18T08:47:35;-5.30;99.90
51884;DHT22;37915;53.254;6.598;2022-12-18T08:50:01;-3.70;99.90
51884;DHT22;37915;53.254;6.598;2022-12-18T08:52:27;-4.20;99.90
51884;DHT22;37915;53.254;6.598;2022-12-18T08:54:53;-5.20;99.90
51884;DHT22;37915;53.254;6.598;2022-12-18T08:57:19;-5.20;99.90
51884;DHT22;37915;53.254;6.598;2022-12-18T08:59:44;-4.90;99.90
51884;DHT22;37915;53.254;6.598;2022-12-18T09:02:11;-5.20;99.90
51884;DHT22;37915;53.254;6.598;2022-12-18T09:04:36;-5.10;99.90
51884;DHT22;37915;53.254;6.598;2022-12-18T09:07:02;-5.10;99.90
51884;DHT22;37915;53.254;6.598;2022-12-18T09:09:28;-4.90;99.90
51884;DHT22;37915;53.254;6.598;2022-12-18T09:11:54;-3.60;99.90
51884;DHT22;37915;53.254;6.598;2022-12-18T09:14:19;-5.10;99.90
51884;DHT22;37915;53.254;6.598;2022-12-18T09:16:45;-5.00;99.90
51884;DHT22;37915;53.254;6.598;2022-12-18T09:19:11;-5.00;99.90
51884;DHT22;37915;53.254;6.598;2022-12-18T09:21:36;-5.00;99.90
51884;DHT22;37915;53.254;6.598;2022-12-18T09:24:04;-4.90;99.90
51884;DHT22;37915;53.254;6.598;2022-12-18T09:26:30;-4.80;99.90
51884;DHT22;37915;53.254;6.598;2022-12-18T09:28:56;-3.80;99.90
51884;DHT22;37915;53.254;6.598;2022-12-18T09:31:23;-4.80;99.90
51884;DHT22;37915;53.254;6.598;2022-12-18T09:33:50;-4.70;99.90
51884;DHT22;37915;53.254;6.598;2022-12-18T09:36:17;-4.70;99.90
51884;DHT22;37915;53.254;6.598;2022-12-18T09:38:43;-4.60;99.90
51884;DHT22;37915;53.254;6.598;2022-12-18T09:43:51;-4.40;99.90
51884;DHT22;37915;53.254;6.598;2022-12-18T09:46:32;-4.40;99.90
51884;DHT22;37915;53.254;6.598;2022-12-18T09:49:05;-3.70;99.90
51884;DHT22;37915;53.254;6.598;2022-12-18T09:51:39;-3.20;99.90
51884;DHT22;37915;53.254;6.598;2022-12-18T09:54:14;-4.20;99.90
51884;DHT22;37915;53.254;6.598;2022-12-18T09:56:42;-4.20;99.90
51884;DHT22;37915;53.254;6.598;2022-12-18T09:59:32;-4.20;99.90
51884;DHT22;37915;53.254;6.598;2022-12-18T10:01:59;-4.10;99.90
51884;DHT22;37915;53.254;6.598;2022-12-18T10:04:26;-4.10;99.90
51884;DHT22;37915;53.254;6.598;2022-12-18T10:07:16;-4.10;99.90
51884;DHT22;37915;53.254;6.598;2022-12-18T10:19:00;-4.00;99.90
51884;DHT22;37915;53.254;6.598;2022-12-18T10:21:04;-3.90;99.90
51884;DHT22;37915;53.254;6.598;2022-12-18T10:24:03;-3.80;99.90
51884;DHT22;37915;53.254;6.598;2022-12-18T10:26:25;-3.90;99.90
51884;DHT22;37915;53.254;6.598;2022-12-18T10:28:52;-3.70;99.90
51884;DHT22;37915;53.254;6.598;2022-12-18T10:31:21;-3.70;99.90
51884;DHT22;37915;53.254;6.598;2022-12-18T10:33:47;-3.60;99.90
51884;DHT22;37915;53.254;6.598;2022-12-18T10:36:13;-3.50;99.90
51884;DHT22;37915;53.254;6.598;2022-12-18T10:38:39;-3.30;99.90
51884;DHT22;37915;53.254;6.598;2022-12-18T10:43:45;-3.40;99.90
51884;DHT22;37915;53.254;6.598;2022-12-18T10:51:29;-3.30;99.90
51884;DHT22;37915;53.254;6.598;2022-12-18T10:56:22;-3.00;99.90
51884;DHT22;37915;53.254;6.598;2022-12-18T10:59:02;-1.80;99.90
51884;DHT22;37915;53.254;6.598;2022-12-18T11:01:46;-1.20;99.90
51884;DHT22;37915;53.254;6.598;2022-12-18T11:04:17;-3.10;99.90
51884;DHT22;37915;53.254;6.598;2022-12-18T11:07:04;-2.60;99.90
51884;DHT22;37915;53.254;6.598;2022-12-18T11:09:32;-3.00;99.90
51884;DHT22;37915;53.254;6.598;2022-12-18T11:12:21;-2.90;99.90
51884;DHT22;37915;53.254;6.598;2022-12-18T11:14:51;-2.90;99.90
51884;DHT22;37915;53.254;6.598;2022-12-18T11:17:33;-2.80;99.90
51884;DHT22;37915;53.254;6.598;2022-12-18T11:20:04;-2.80;99.90
51884;DHT22;37915;53.254;6.598;2022-12-18T11:22:34;-2.70;99.90
51884;DHT22;37915;53.254;6.598;2022-12-18T11:25:01;-2.70;99.90
51884;DHT22;37915;53.254;6.598;2022-12-18T11:27:28;-2.50;99.90
51884;DHT22;37915;53.254;6.598;2022-12-18T11:33:04;-2.50;99.90
51884;DHT22;37915;53.254;6.598;2022-12-18T11:40:56;-2.40;99.90
51884;DHT22;37915;53.254;6.598;2022-12-18T11:43:41;-2.40;99.90
51884;DHT22;37915;53.254;6.598;2022-12-18T11:46:17;-2.30;99.90
51884;DHT22;37915;53.254;6.598;2022-12-18T11:49:11;-1.60;99.90
51884;DHT22;37915;53.254;6.598;2022-12-18T11:51:47;-2.30;99.90
51884;DHT22;37915;53.254;6.598;2022-12-18T11:54:14;-1.90;99.90
51884;DHT22;37915;53.254;6.598;2022-12-18T11:57:23;-2.20;99.90
51884;DHT22;37915;53.254;6.598;2022-12-18T12:02:43;-2.10;99.90
51884;DHT22;37915;53.254;6.598;2022-12-18T12:13:27;-2.10;99.90
51884;DHT22;37915;53.254;6.598;2022-12-18T12:19:58;-2.00;99.90
51884;DHT22;37915;53.254;6.598;2022-12-18T12:22:10;-2.00;99.90
51884;DHT22;37915;53.254;6.598;2022-12-18T12:35:50;-0.90;99.90
51884;DHT22;37915;53.254;6.598;2022-12-18T12:38:34;-1.90;99.90
51884;DHT22;37915;53.254;6.598;2022-12-18T12:41:04;-1.90;99.90
51884;DHT22;37915;53.254;6.598;2022-12-18T12:43:46;-1.50;99.90
51884;DHT22;37915;53.254;6.598;2022-12-18T12:46:16;-0.60;99.90
51884;DHT22;37915;53.254;6.598;2022-12-18T12:48:52;-1.30;99.90
51884;DHT22;37915;53.254;6.598;2022-12-18T12:51:28;-1.70;99.90
51884;DHT22;37915;53.254;6.598;2022-12-18T12:53:57;-1.80;99.90
51884;DHT22;37915;53.254;6.598;2022-12-18T12:56:29;-1.80;99.90
51884;DHT22;37915;53.254;6.598;2022-12-18T12:59:02;-1.70;99.90
51884;DHT22;37915;53.254;6.598;2022-12-18T13:01:49;-1.70;99.90
51884;DHT22;37915;53.254;6.598;2022-12-18T13:04:39;-1.70;99.90
51884;DHT22;37915;53.254;6.598;2022-12-18T13:07:29;-1.70;99.90
51884;DHT22;37915;53.254;6.598;2022-12-18T13:13:00;-1.70;99.90
51884;DHT22;37915;53.254;6.598;2022-12-18T13:20:41;-0.70;99.90
51884;DHT22;37915;53.254;6.598;2022-12-18T13:23:29;-1.60;99.90
51884;DHT22;37915;53.254;6.598;2022-12-18T13:34:17;-1.50;99.90
51884;DHT22;37915;53.254;6.598;2022-12-18T13:36:43;-1.50;99.90
51884;DHT22;37915;53.254;6.598;2022-12-18T13:41:48;-1.40;99.90
51884;DHT22;37915;53.254;6.598;2022-12-18T13:44:31;0.20;99.90
51884;DHT22;37915;53.254;6.598;2022-12-18T13:47:03;-1.40;99.90
51884;DHT22;37915;53.254;6.598;2022-12-18T13:49:38;-1.40;99.90
51884;DHT22;37915;53.254;6.598;2022-12-18T13:52:37;0.30;99.90
51884;DHT22;37915;53.254;6.598;2022-12-18T13:55:10;-0.50;99.90
51884;DHT22;37915;53.254;6.598;2022-12-18T13:57:40;-1.40;99.90
51884;DHT22;37915;53.254;6.598;2022-12-18T14:00:32;-1.40;99.90
51884;DHT22;37915;53.254;6.598;2022-12-18T14:02:59;-1.30;99.90
51884;DHT22;37915;53.254;6.598;2022-12-18T14:07:54;-1.30;99.90
51884;DHT22;37915;53.254;6.598;2022-12-18T14:10:21;-1.10;99.90
51884;DHT22;37915;53.254;6.598;2022-12-18T14:12:48;-1.30;99.90
51884;DHT22;37915;53.254;6.598;2022-12-18T14:20:35;-1.30;99.90
51884;DHT22;37915;53.254;6.598;2022-12-18T14:23:01;-1.30;99.90
51884;DHT22;37915;53.254;6.598;2022-12-18T14:25:28;-0.40;99.90
51884;DHT22;37915;53.254;6.598;2022-12-18T14:35:36;-1.30;99.90
51884;DHT22;37915;53.254;6.598;2022-12-18T14:38:32;-1.40;99.90
51884;DHT22;37915;53.254;6.598;2022-12-18T14:43:32;-1.40;99.90
51884;DHT22;37915;53.254;6.598;2022-12-18T14:45:58;-0.70;99.90
51884;DHT22;37915;53.254;6.598;2022-12-18T14:53:39;-1.50;99.90
51884;DHT22;37915;53.254;6.598;2022-12-18T14:58:49;-1.60;99.90
51884;DHT22;37915;53.254;6.598;2022-12-18T15:01:20;-0.20;99.90
51884;DHT22;37915;53.254;6.598;2022-12-18T15:03:48;-1.60;99.90
51884;DHT22;37915;53.254;6.598;2022-12-18T15:06:24;-0.30;99.90
51884;DHT22;37915;53.254;6.598;2022-12-18T15:08:51;-1.60;99.90
51884;DHT22;37915;53.254;6.598;2022-12-18T15:11:45;-0.20;99.90
51884;DHT22;37915;53.254;6.598;2022-12-18T15:14:32;-0.10;99.90
51884;DHT22;37915;53.254;6.598;2022-12-18T15:16:59;-1.70;99.90
51884;DHT22;37915;53.254;6.598;2022-12-18T15:19:40;-1.70;99.90
51884;DHT22;37915;53.254;6.598;2022-12-18T15:22:34;-1.30;99.90
51884;DHT22;37915;53.254;6.598;2022-12-18T15:25:00;-1.70;99.90
51884;DHT22;37915;53.254;6.598;2022-12-18T15:27:35;-1.70;99.90
51884;DHT22;37915;53.254;6.598;2022-12-18T15:30:16;-1.60;99.90
51884;DHT22;37915;53.254;6.598;2022-12-18T15:32:42;-1.80;99.90
51884;DHT22;37915;53.254;6.598;2022-12-18T15:37:39;-1.90;99.90
51884;DHT22;37915;53.254;6.598;2022-12-18T15:40:07;-1.90;99.90
51884;DHT22;37915;53.254;6.598;2022-12-18T15:42:33;-1.90;99.90
51884;DHT22;37915;53.254;6.598;2022-12-18T15:45:17;-0.90;99.90
51884;DHT22;37915;53.254;6.598;2022-12-18T15:47:43;-1.90;99.90
51884;DHT22;37915;53.254;6.598;2022-12-18T15:50:09;-1.20;99.90
51884;DHT22;37915;53.254;6.598;2022-12-18T15:52:43;-2.00;99.90
51884;DHT22;37915;53.254;6.598;2022-12-18T15:55:14;-2.00;99.90
51884;DHT22;37915;53.254;6.598;2022-12-18T15:57:59;-2.00;99.90
51884;DHT22;37915;53.254;6.598;2022-12-18T16:00:25;-1.90;99.90
51884;DHT22;37915;53.254;6.598;2022-12-18T16:02:51;-2.00;99.90
51884;DHT22;37915;53.254;6.598;2022-12-18T16:05:19;-2.10;99.90
51884;DHT22;37915;53.254;6.598;2022-12-18T16:07:45;-2.10;99.90
51884;DHT22;37915;53.254;6.598;2022-12-18T16:10:12;-2.10;99.90
51884;DHT22;37915;53.254;6.598;2022-12-18T16:12:38;-2.10;99.90
51884;DHT22;37915;53.254;6.598;2022-12-18T16:15:05;-2.10;99.90
51884;DHT22;37915;53.254;6.598;2022-12-18T16:17:31;-2.10;99.90
51884;DHT22;37915;53.254;6.598;2022-12-18T16:19:57;-1.60;99.90
51884;DHT22;37915;53.254;6.598;2022-12-18T16:22:28;-2.10;99.90
51884;DHT22;37915;53.254;6.598;2022-12-18T16:24:56;-1.20;99.90
51884;DHT22;37915;53.254;6.598;2022-12-18T16:27:22;-1.40;99.90
51884;DHT22;37915;53.254;6.598;2022-12-18T16:29:49;-0.90;99.90
51884;DHT22;37915;53.254;6.598;2022-12-18T16:32:18;-1.30;99.90
51884;DHT22;37915;53.254;6.598;2022-12-18T16:34:44;-2.00;99.90
51884;DHT22;37915;53.254;6.598;2022-12-18T16:37:12;-2.00;99.90
51884;DHT22;37915;53.254;6.598;2022-12-18T16:39:38;-1.90;99.90
51884;DHT22;37915;53.254;6.598;2022-12-18T16:42:16;-1.90;99.90
51884;DHT22;37915;53.254;6.598;2022-12-18T16:44:45;-2.00;99.90
51884;DHT22;37915;53.254;6.598;2022-12-18T16:47:12;-1.90;99.90
51884;DHT22;37915;53.254;6.598;2022-12-18T16:49:38;-1.80;99.90
51884;DHT22;37915;53.254;6.598;2022-12-18T16:52:05;-1.90;99.90
51884;DHT22;37915;53.254;6.598;2022-12-18T16:54:31;-1.90;99.90
51884;DHT22;37915;53.254;6.598;2022-12-18T16:56:58;-1.90;99.90
51884;DHT22;37915;53.254;6.598;2022-12-18T16:59:25;-1.80;99.90
51884;DHT22;37915;53.254;6.598;2022-12-18T17:01:51;-0.70;99.90
51884;DHT22;37915;53.254;6.598;2022-12-18T17:04:17;-1.80;99.90
51884;DHT22;37915;53.254;6.598;2022-12-18T17:06:44;-1.80;99.90
51884;DHT22;37915;53.254;6.598;2022-12-18T17:09:14;-1.20;99.90
51884;DHT22;37915;53.254;6.598;2022-12-18T17:11:41;-1.70;99.90
51884;DHT22;37915;53.254;6.598;2022-12-18T17:14:17;-1.60;99.90
51884;DHT22;37915;53.254;6.598;2022-12-18T17:16:43;-1.70;99.90
51884;DHT22;37915;53.254;6.598;2022-12-18T17:19:10;-1.70;99.90
51884;DHT22;37915;53.254;6.598;2022-12-18T17:21:35;-1.10;99.90
51884;DHT22;37915;53.254;6.598;2022-12-18T17:24:01;-1.60;99.90
51884;DHT22;37915;53.254;6.598;2022-12-18T17:26:28;-1.60;99.90
51884;DHT22;37915;53.254;6.598;2022-12-18T17:28:57;-1.70;99.90
51884;DHT22;37915;53.254;6.598;2022-12-18T17:31:26;-1.50;99.90
51884;DHT22;37915;53.254;6.598;2022-12-18T17:33:52;-1.60;99.90
51884;DHT22;37915;53.254;6.598;2022-12-18T17:36:18;-1.30;99.90
51884;DHT22;37915;53.254;6.598;2022-12-18T17:38:53;-1.60;99.90
51884;DHT22;37915;53.254;6.598;2022-12-18T17:41:20;-1.60;99.90
51884;DHT22;37915;53.254;6.598;2022-12-18T17:43:57;-1.60;99.90
51884;DHT22;37915;53.254;6.598;2022-12-18T17:46:24;-1.60;99.90
51884;DHT22;37915;53.254;6.598;2022-12-18T17:48:51;-1.70;99.90